首页
METAR-TAF:

METAR-TAF

机场 :

萨尔瓦多奥斯卡·阿努尔福·罗梅罗-伊-加尔达梅斯主教国际机场

萨尔瓦多, 萨尔瓦多

纬度: 13-26N, 经度: 089-03W, 海拔: 25米

当前天气观测

该预报发布于16分钟前的19:50 UTC
风速7节,风向,在东转东南南转西南之间变化
温度 35°C
湿度 44%
气压 1011 hPa
能見度: 7000

METAR: MSLP 071950Z 18007KT 120V210 7000 NSC 35/21 Q1010 A2984 NOSIG RMK HZ

时间: 14:06 (20:06 UTC)

预报

该预报发布于4小时和41分钟前的15:25 UTC
预报有效从07日的 18点(UTC)到 08日的 18点(UTC)
风速9节,风向西南
能见度10公里或以上
散云层高于3300英尺
从 08日的 0100点(UTC)
风速2节,风向多变
少量云层高于3000英尺
散云层高于7500英尺
从 08日的 0600点(UTC)
能见度10公里或以上
少量云层高于7500英尺
从 08日的 1300点(UTC)
风速4节,风向东转东南
少量云层高于3300英尺

TAF: MSLP 071525Z 0718/0818 22009KT 9999 SCT033 TX34/0718Z TN24/0810Z FM080100 VRB02KT FEW030 SCT075 FM080600 9999 FEW075 FM081300 12004KT FEW033

超过4000个机场的气象观测和天气预报(METAR&TAF报告)。

可查询的气象台以黄色和红色小点在地图上表示。

将鼠标移到小点上方,可查看气象台名称。

然后点击查看天气观测和预报。

如需切换地图:点击带黑十字的绿色按钮放大地图;点击带横线的绿色按钮缩小地图;或者点击绿色箭头查看邻近地区的地图。


METAR-TAF: